createdAt,value
2019-05-05T00:01:25.494Z,5.40
2019-05-05T00:04:01.729Z,5.87
2019-05-05T00:06:27.294Z,3.50
2019-05-05T00:08:54.647Z,5.27
2019-05-05T00:11:39.054Z,3.67
2019-05-05T00:14:15.232Z,3.60
2019-05-05T00:16:49.794Z,4.47
2019-05-05T00:19:29.765Z,4.27
2019-05-05T00:21:44.658Z,6.80
2019-05-05T00:24:10.215Z,4.97
2019-05-05T00:26:35.565Z,3.90
2019-05-05T00:29:01.182Z,4.97
2019-05-05T00:31:26.687Z,3.80
2019-05-05T00:33:54.256Z,5.13
2019-05-05T00:36:19.100Z,5.13
2019-05-05T00:38:44.668Z,5.23
2019-05-05T00:41:11.098Z,5.17
2019-05-05T00:43:36.507Z,5.27
2019-05-05T00:46:07.506Z,3.63
2019-05-05T00:48:54.920Z,4.30
2019-05-05T00:51:20.712Z,3.40
2019-05-05T00:53:46.092Z,3.73
2019-05-05T00:56:11.457Z,4.47
2019-05-05T00:58:39.130Z,3.90
2019-05-05T01:01:14.393Z,3.87
2019-05-05T01:03:39.947Z,4.77
2019-05-05T01:06:19.916Z,5.50
2019-05-05T01:08:45.722Z,3.87
2019-05-05T01:11:11.115Z,3.40
2019-05-05T01:13:36.661Z,5.33
2019-05-05T01:16:04.646Z,5.13
2019-05-05T01:18:29.928Z,5.03
2019-05-05T01:20:55.483Z,3.80
2019-05-05T01:23:20.896Z,3.27
2019-05-05T01:25:48.713Z,3.97
2019-05-05T01:28:14.353Z,4.50
2019-05-05T01:30:44.412Z,4.17
2019-05-05T01:33:28.298Z,5.13
2019-05-05T01:35:55.231Z,5.17
2019-05-05T01:38:28.760Z,4.47
2019-05-05T01:41:14.736Z,5.07
2019-05-05T01:43:40.488Z,3.50
2019-05-05T01:46:06.087Z,3.70
2019-05-05T01:48:31.475Z,3.67
2019-05-05T01:50:57.118Z,3.40
2019-05-05T01:53:24.374Z,4.17
2019-05-05T01:55:49.597Z,3.63
2019-05-05T01:58:15.799Z,3.97
2019-05-05T02:00:41.262Z,4.50
2019-05-05T02:03:07.161Z,4.43
2019-05-05T02:05:34.571Z,5.50
2019-05-05T02:07:59.591Z,6.33
2019-05-05T02:10:25.516Z,4.90
2019-05-05T02:12:50.978Z,4.50
2019-05-05T02:15:16.583Z,5.70
2019-05-05T02:17:41.962Z,4.90
2019-05-05T02:20:07.794Z,5.47
2019-05-05T02:22:33.171Z,3.80
2019-05-05T02:24:58.934Z,5.10
2019-05-05T02:27:25.268Z,5.90
2019-05-05T02:29:58.580Z,5.87
2019-05-05T02:32:55.482Z,8.03
2019-05-05T02:35:21.027Z,5.27
2019-05-05T02:37:46.519Z,5.17
2019-05-05T02:40:15.653Z,7.50
2019-05-05T02:42:40.883Z,6.73
2019-05-05T02:45:09.687Z,6.93
2019-05-05T02:48:15.333Z,5.57
2019-05-05T02:51:02.430Z,7.47
2019-05-05T02:53:30.013Z,8.60
2019-05-05T02:55:59.500Z,7.07
2019-05-05T02:58:25.400Z,6.47
2019-05-05T03:00:58.618Z,9.23
2019-05-05T03:03:25.136Z,4.57
2019-05-05T03:05:50.958Z,5.83
2019-05-05T03:08:17.923Z,7.00
2019-05-05T03:10:45.858Z,4.97
2019-05-05T03:13:11.262Z,6.43
2019-05-05T03:16:00.949Z,8.70
2019-05-05T03:18:26.358Z,5.50
2019-05-05T03:21:03.862Z,7.93
2019-05-05T03:23:19.934Z,4.40
2019-05-05T03:25:46.159Z,5.70
2019-05-05T03:28:13.625Z,7.17
2019-05-05T03:30:38.910Z,5.53
2019-05-05T03:33:05.546Z,5.57
2019-05-05T03:35:34.576Z,6.13
2019-05-05T03:38:01.370Z,4.60
2019-05-05T03:40:29.118Z,4.77
2019-05-05T03:42:59.825Z,5.83
2019-05-05T03:45:47.071Z,5.40
2019-05-05T03:48:13.581Z,5.13
2019-05-05T03:50:39.234Z,5.50
2019-05-05T03:53:06.377Z,7.70
2019-05-05T03:55:31.954Z,7.13
2019-05-05T03:57:57.556Z,5.10
2019-05-05T04:00:35.465Z,5.77
2019-05-05T04:03:06.743Z,6.23
2019-05-05T04:05:58.594Z,6.10
2019-05-05T04:08:23.940Z,5.33
2019-05-05T04:10:49.914Z,6.93
2019-05-05T04:13:16.594Z,5.97
2019-05-05T04:15:44.168Z,5.57
2019-05-05T04:18:17.945Z,9.03
2019-05-05T04:20:44.288Z,8.13
2019-05-05T04:23:09.611Z,7.70
2019-05-05T04:25:35.151Z,9.17
2019-05-05T04:28:01.512Z,6.93
2019-05-05T04:30:26.861Z,8.57
2019-05-05T04:32:54.387Z,6.57
2019-05-05T04:35:19.275Z,9.73
2019-05-05T04:37:44.669Z,7.60
2019-05-05T04:40:10.155Z,7.27
2019-05-05T04:42:35.525Z,10.00
2019-05-05T04:45:00.908Z,9.23
2019-05-05T04:47:30.398Z,6.73
2019-05-05T04:50:11.200Z,10.20
2019-05-05T04:52:36.547Z,8.07
2019-05-05T04:55:03.738Z,7.47
2019-05-05T04:57:28.906Z,9.37
2019-05-05T04:59:54.315Z,6.30
2019-05-05T05:02:47.813Z,8.50
2019-05-05T05:05:33.745Z,7.47
2019-05-05T05:07:59.627Z,6.57
2019-05-05T05:10:26.070Z,5.73
2019-05-05T05:12:51.431Z,6.23
2019-05-05T05:15:20.086Z,8.27
2019-05-05T05:17:53.503Z,7.33
2019-05-05T05:20:18.899Z,5.77
2019-05-05T05:22:44.287Z,5.20
2019-05-05T05:25:10.490Z,6.40
2019-05-05T05:27:35.867Z,6.37
2019-05-05T05:30:01.227Z,5.03
2019-05-05T05:32:26.585Z,5.87
2019-05-05T05:34:54.091Z,6.20
2019-05-05T05:37:19.038Z,7.60
2019-05-05T05:39:54.534Z,8.23
2019-05-05T05:42:20.002Z,11.30
2019-05-05T05:45:00.850Z,7.00
2019-05-05T05:47:48.199Z,5.30
2019-05-05T05:50:26.670Z,5.17
2019-05-05T05:52:53.954Z,5.47
2019-05-05T05:55:19.010Z,3.90
2019-05-05T05:57:44.407Z,4.77
2019-05-05T06:00:10.180Z,5.17
2019-05-05T06:02:35.571Z,6.33
2019-05-05T06:05:01.084Z,9.40
2019-05-05T06:07:26.447Z,5.73
2019-05-05T06:09:51.813Z,5.87
2019-05-05T06:12:17.170Z,6.97
2019-05-05T06:14:44.530Z,4.17
2019-05-05T06:17:09.522Z,4.50
2019-05-05T06:19:34.895Z,4.00
2019-05-05T06:22:00.299Z,5.67
2019-05-05T06:24:25.655Z,5.70
2019-05-05T06:26:51.039Z,4.10
2019-05-05T06:29:16.398Z,4.33
2019-05-05T06:31:41.794Z,6.00
2019-05-05T06:34:07.145Z,6.73
2019-05-05T06:36:34.066Z,4.73
2019-05-05T06:38:59.578Z,5.60
2019-05-05T06:41:34.205Z,5.00
2019-05-05T06:44:17.580Z,4.73
2019-05-05T06:47:00.954Z,5.53
2019-05-05T06:49:27.479Z,5.33
2019-05-05T06:51:54.709Z,4.07
2019-05-05T06:54:20.310Z,4.77
2019-05-05T06:56:45.670Z,5.33
2019-05-05T06:59:11.055Z,7.93
2019-05-05T07:01:36.412Z,4.60
2019-05-05T07:04:03.403Z,4.53
2019-05-05T07:06:29.011Z,5.20
2019-05-05T07:08:54.650Z,4.00
2019-05-05T07:11:20.151Z,6.03
2019-05-05T07:13:45.562Z,4.57
2019-05-05T07:16:12.867Z,5.17
2019-05-05T07:18:37.949Z,4.20
2019-05-05T07:21:04.415Z,6.33
2019-05-05T07:23:29.779Z,5.40
2019-05-05T07:25:55.264Z,5.80
2019-05-05T07:28:20.703Z,4.30
2019-05-05T07:30:46.082Z,4.90
2019-05-05T07:33:11.462Z,5.73
2019-05-05T07:36:11.102Z,5.17
2019-05-05T07:38:36.506Z,6.13
2019-05-05T07:41:03.671Z,8.37
2019-05-05T07:43:29.203Z,6.27
2019-05-05T07:45:54.563Z,6.17
2019-05-05T07:48:21.022Z,5.73
2019-05-05T07:50:58.692Z,4.70
2019-05-05T07:53:17.636Z,4.00
2019-05-05T07:55:43.562Z,6.77
2019-05-05T07:58:09.295Z,3.97
2019-05-05T08:00:34.650Z,4.97
2019-05-05T08:03:00.074Z,5.43
2019-05-05T08:05:25.827Z,4.63
2019-05-05T08:07:51.193Z,5.67
2019-05-05T08:10:16.599Z,7.23
2019-05-05T08:12:43.666Z,4.77
2019-05-05T08:15:09.112Z,5.43
2019-05-05T08:17:53.947Z,5.80
2019-05-05T08:20:23.858Z,5.30
2019-05-05T08:22:49.317Z,5.67
2019-05-05T08:25:39.840Z,4.67
2019-05-05T08:28:18.181Z,5.47
2019-05-05T08:31:14.797Z,4.63
2019-05-05T08:33:40.170Z,5.47
2019-05-05T08:36:05.542Z,2.30
2019-05-05T08:38:30.918Z,4.37
2019-05-05T08:40:56.266Z,4.23
2019-05-05T08:43:21.683Z,4.47
2019-05-05T08:45:47.041Z,3.53
2019-05-05T08:48:14.248Z,3.40
2019-05-05T08:50:39.433Z,3.63
2019-05-05T08:53:08.289Z,4.67
2019-05-05T08:55:33.812Z,2.47
2019-05-05T08:57:58.854Z,2.47
2019-05-05T09:00:24.528Z,5.17
2019-05-05T09:02:50.025Z,6.00
2019-05-05T09:05:15.414Z,3.33
2019-05-05T09:07:40.790Z,4.57
2019-05-05T09:10:06.402Z,2.57
2019-05-05T09:12:33.776Z,3.47
2019-05-05T09:14:58.828Z,2.87
2019-05-05T09:17:24.758Z,2.97
2019-05-05T09:19:51.184Z,2.80
2019-05-05T09:22:16.574Z,4.77
2019-05-05T09:25:00.168Z,2.70
2019-05-05T09:28:06.175Z,3.77
2019-05-05T09:30:38.659Z,2.93
2019-05-05T09:33:04.370Z,2.17
2019-05-05T09:35:29.713Z,4.30
2019-05-05T09:37:55.101Z,2.60
2019-05-05T09:40:27.862Z,3.23
2019-05-05T09:42:54.551Z,2.43
2019-05-05T09:45:20.012Z,2.57
2019-05-05T09:47:45.426Z,2.27
2019-05-05T09:50:10.918Z,2.57
2019-05-05T09:52:36.335Z,3.87
2019-05-05T09:55:03.673Z,1.77
2019-05-05T09:57:28.683Z,2.17
2019-05-05T10:00:06.749Z,4.53
2019-05-05T10:02:34.082Z,2.70
2019-05-05T10:04:59.185Z,3.40
2019-05-05T10:07:24.687Z,4.10
2019-05-05T10:09:50.074Z,3.50
2019-05-05T10:12:15.476Z,4.23
2019-05-05T10:14:41.181Z,2.30
2019-05-05T10:17:06.573Z,4.53
2019-05-05T10:19:32.239Z,3.27
2019-05-05T10:21:57.625Z,2.10
2019-05-05T10:24:31.019Z,3.60
2019-05-05T10:26:54.803Z,2.17
2019-05-05T10:29:20.164Z,1.93
2019-05-05T10:31:45.547Z,3.90
2019-05-05T10:34:13.623Z,2.47
2019-05-05T10:36:39.087Z,2.43
2019-05-05T10:39:10.731Z,4.13
2019-05-05T10:41:36.126Z,2.20
2019-05-05T10:44:03.557Z,4.07
2019-05-05T10:46:28.585Z,3.07
2019-05-05T10:48:53.933Z,3.47
2019-05-05T10:51:19.362Z,3.20
2019-05-05T10:53:44.690Z,3.00
2019-05-05T10:56:10.057Z,2.63
2019-05-05T10:58:35.443Z,1.83
2019-05-05T11:01:04.291Z,3.07
2019-05-05T11:03:29.618Z,3.07
2019-05-05T11:05:55.368Z,2.20
2019-05-05T11:08:20.739Z,3.17
2019-05-05T11:10:46.146Z,1.50
2019-05-05T11:13:11.876Z,2.43
2019-05-05T11:15:37.374Z,3.90
2019-05-05T11:18:03.971Z,2.03
2019-05-05T11:20:30.695Z,1.90
2019-05-05T11:22:56.435Z,1.50
2019-05-05T11:25:21.826Z,1.73
2019-05-05T11:27:47.346Z,1.80
2019-05-05T11:30:17.779Z,1.53
2019-05-05T11:33:01.038Z,4.87
2019-05-05T11:35:28.340Z,2.80
2019-05-05T11:37:54.289Z,4.87
2019-05-05T11:40:31.859Z,2.17
2019-05-05T11:42:57.287Z,2.87
2019-05-05T11:45:24.060Z,3.97
2019-05-05T11:47:49.487Z,1.60
2019-05-05T11:50:14.867Z,3.43
2019-05-05T11:52:40.274Z,3.17
2019-05-05T11:55:11.595Z,2.17
2019-05-05T11:57:34.686Z,2.37
2019-05-05T12:00:00.067Z,2.33
2019-05-05T12:02:25.503Z,3.47
2019-05-05T12:04:50.950Z,1.97
2019-05-05T12:07:16.314Z,1.83
2019-05-05T12:09:49.807Z,1.70
2019-05-05T12:12:15.162Z,2.50
2019-05-05T12:14:40.514Z,3.23
2019-05-05T12:17:05.915Z,2.43
2019-05-05T12:19:33.434Z,3.00
2019-05-05T12:21:58.290Z,3.33
2019-05-05T12:24:27.779Z,2.70
2019-05-05T12:27:06.931Z,3.60
2019-05-05T12:29:36.911Z,4.30
2019-05-05T12:32:02.282Z,2.80
2019-05-05T12:34:27.750Z,4.13
2019-05-05T12:36:53.971Z,3.83
2019-05-05T12:39:19.510Z,2.27
2019-05-05T12:41:44.900Z,2.13
2019-05-05T12:44:14.175Z,4.07
2019-05-05T12:46:58.004Z,3.13
2019-05-05T12:49:25.339Z,2.57
2019-05-05T12:51:50.359Z,2.60
2019-05-05T12:54:15.742Z,3.90
2019-05-05T12:56:41.138Z,2.60
2019-05-05T12:59:10.834Z,2.77
2019-05-05T13:01:37.922Z,4.13
2019-05-05T13:04:03.617Z,2.97
2019-05-05T13:06:28.974Z,5.10
2019-05-05T13:08:54.805Z,3.17
2019-05-05T13:11:20.289Z,4.27
2019-05-05T13:13:45.726Z,2.20
2019-05-05T13:16:13.488Z,1.87
2019-05-05T13:18:38.251Z,2.83
2019-05-05T13:21:10.390Z,3.13
2019-05-05T13:24:04.472Z,2.47
2019-05-05T13:26:57.698Z,3.20
2019-05-05T13:29:24.625Z,1.90
2019-05-05T13:31:50.214Z,2.83
2019-05-05T13:34:15.583Z,4.70
2019-05-05T13:36:41.012Z,2.40
2019-05-05T13:39:08.174Z,2.57
2019-05-05T13:41:35.171Z,2.73
2019-05-05T13:44:04.462Z,2.50
2019-05-05T13:46:33.793Z,2.93
2019-05-05T13:49:35.910Z,2.60
2019-05-05T13:52:04.708Z,3.27
2019-05-05T13:54:30.306Z,2.37
2019-05-05T13:56:55.770Z,1.90
2019-05-05T13:59:21.130Z,1.97
2019-05-05T14:01:46.621Z,3.87
2019-05-05T14:04:12.050Z,4.03
2019-05-05T14:06:37.487Z,2.67
2019-05-05T14:09:04.375Z,2.27
2019-05-05T14:11:33.962Z,3.23
2019-05-05T14:13:59.556Z,4.67
2019-05-05T14:16:25.510Z,2.70
2019-05-05T14:18:50.975Z,4.97
2019-05-05T14:21:16.354Z,3.97
2019-05-05T14:24:03.892Z,2.33
2019-05-05T14:26:32.103Z,2.37
2019-05-05T14:28:56.533Z,3.40
2019-05-05T14:31:26.510Z,2.80
2019-05-05T14:33:55.277Z,3.80
2019-05-05T14:36:28.018Z,1.93
2019-05-05T14:38:55.863Z,1.67
2019-05-05T14:41:21.215Z,1.90
2019-05-05T14:43:46.574Z,4.57
2019-05-05T14:46:14.389Z,2.50
2019-05-05T14:48:39.494Z,2.57
2019-05-05T14:51:04.854Z,2.60
2019-05-05T14:53:30.279Z,1.83
2019-05-05T14:55:55.704Z,2.47
2019-05-05T14:58:21.146Z,3.93
2019-05-05T15:00:46.550Z,2.70
2019-05-05T15:03:13.848Z,2.30
2019-05-05T15:05:57.925Z,2.63
2019-05-05T15:08:37.714Z,3.37
2019-05-05T15:11:08.707Z,4.40
2019-05-05T15:13:34.090Z,2.00
2019-05-05T15:15:59.492Z,1.60
2019-05-05T15:18:25.938Z,3.40
2019-05-05T15:20:51.843Z,1.60
2019-05-05T15:23:17.308Z,2.23
2019-05-05T15:25:44.575Z,2.70
2019-05-05T15:28:09.842Z,2.53
2019-05-05T15:30:35.215Z,3.30
2019-05-05T15:33:01.098Z,3.63
2019-05-05T15:35:26.482Z,2.23
2019-05-05T15:37:53.973Z,2.47
2019-05-05T15:40:19.019Z,3.07
2019-05-05T15:42:44.386Z,1.60
2019-05-05T15:45:09.962Z,2.37
2019-05-05T15:47:35.384Z,2.33
2019-05-05T15:50:00.746Z,3.27
2019-05-05T15:52:26.132Z,2.30
2019-05-05T15:54:53.845Z,1.70
2019-05-05T15:57:19.592Z,2.43
2019-05-05T15:59:45.239Z,2.53
2019-05-05T16:02:10.606Z,1.63
2019-05-05T16:04:36.138Z,4.73
2019-05-05T16:07:02.146Z,2.30
2019-05-05T16:09:27.555Z,1.83
2019-05-05T16:11:54.624Z,2.73
2019-05-05T16:14:20.627Z,2.87
2019-05-05T16:16:56.058Z,1.67
2019-05-05T16:19:31.175Z,1.40
2019-05-05T16:21:59.726Z,3.50
2019-05-05T16:24:31.310Z,4.30
2019-05-05T16:26:56.692Z,3.20
2019-05-05T16:29:23.648Z,2.37
2019-05-05T16:31:49.285Z,1.87
2019-05-05T16:34:14.965Z,2.87
2019-05-05T16:36:40.311Z,1.77
2019-05-05T16:39:07.166Z,1.83
2019-05-05T16:41:34.085Z,2.43
2019-05-05T16:43:59.798Z,2.70
2019-05-05T16:46:25.175Z,1.83
2019-05-05T16:48:54.135Z,3.37
2019-05-05T16:51:23.382Z,3.00
2019-05-05T16:53:49.593Z,3.80
2019-05-05T16:56:15.298Z,3.17
2019-05-05T16:58:41.772Z,4.03
2019-05-05T17:01:09.966Z,1.90
2019-05-05T17:03:35.590Z,2.13
2019-05-05T17:06:00.946Z,3.50
2019-05-05T17:08:26.330Z,1.60
2019-05-05T17:10:51.702Z,2.37
2019-05-05T17:13:36.372Z,5.27
2019-05-05T17:16:34.980Z,3.30
2019-05-05T17:19:19.637Z,2.70
2019-05-05T17:22:12.933Z,2.43
2019-05-05T17:24:38.872Z,2.30
2019-05-05T17:27:04.484Z,1.30
2019-05-05T17:29:30.007Z,3.00
2019-05-05T17:31:55.380Z,3.17
2019-05-05T17:34:21.087Z,2.50
2019-05-05T17:36:46.466Z,3.83
2019-05-05T17:39:13.112Z,2.37
2019-05-05T17:42:14.208Z,1.73
2019-05-05T17:45:16.960Z,2.37
2019-05-05T17:47:47.753Z,1.77
2019-05-05T17:50:19.554Z,2.30
2019-05-05T17:52:48.694Z,6.33
2019-05-05T17:55:31.151Z,4.70
2019-05-05T17:58:01.679Z,1.97
2019-05-05T18:00:24.382Z,2.93
2019-05-05T18:02:49.826Z,2.03
2019-05-05T18:05:15.309Z,2.97
2019-05-05T18:07:44.088Z,3.27
2019-05-05T18:10:17.449Z,3.20
2019-05-05T18:13:11.113Z,3.50
2019-05-05T18:15:55.066Z,3.30
2019-05-05T18:18:20.514Z,3.03
2019-05-05T18:20:45.873Z,2.10
2019-05-05T18:23:13.890Z,3.03
2019-05-05T18:25:39.395Z,2.10
2019-05-05T18:28:16.138Z,3.80
2019-05-05T18:30:33.461Z,1.93
2019-05-05T18:32:58.979Z,2.87
2019-05-05T18:35:24.334Z,2.23
2019-05-05T18:37:51.090Z,1.87
2019-05-05T18:40:16.439Z,5.23
2019-05-05T18:42:41.794Z,3.03
2019-05-05T18:45:10.536Z,3.90
2019-05-05T18:47:37.174Z,3.53
2019-05-05T18:50:04.141Z,4.20
2019-05-05T18:52:29.815Z,5.60
2019-05-05T18:54:55.174Z,5.33
2019-05-05T18:57:20.542Z,3.50
2019-05-05T18:59:50.905Z,4.10
2019-05-05T19:02:41.065Z,3.13
2019-05-05T19:05:38.675Z,3.80
2019-05-05T19:08:09.858Z,4.23
2019-05-05T19:10:35.279Z,5.23
2019-05-05T19:13:00.745Z,5.43
2019-05-05T19:15:26.140Z,3.27
2019-05-05T19:17:51.606Z,3.90
2019-05-05T19:20:27.669Z,3.10
2019-05-05T19:22:55.980Z,3.60
2019-05-05T19:25:21.452Z,3.27
2019-05-05T19:27:47.079Z,4.37
2019-05-05T19:30:13.765Z,3.90
2019-05-05T19:32:39.191Z,4.60
2019-05-05T19:35:05.025Z,3.67
2019-05-05T19:37:30.450Z,3.33
2019-05-05T19:39:55.813Z,4.03
2019-05-05T19:42:21.299Z,4.37
2019-05-05T19:44:46.734Z,5.00
2019-05-05T19:47:16.697Z,3.93
2019-05-05T19:49:46.547Z,6.07
2019-05-05T19:52:13.579Z,5.13
2019-05-05T19:54:39.202Z,5.90
2019-05-05T19:57:05.218Z,8.13
2019-05-05T19:59:30.584Z,5.37
2019-05-05T20:01:56.040Z,5.93
2019-05-05T20:04:21.469Z,10.83
2019-05-05T20:06:46.972Z,18.90
2019-05-05T20:09:14.146Z,17.43
2019-05-05T20:11:39.460Z,29.83
2019-05-05T20:14:10.089Z,21.33
2019-05-05T20:16:54.661Z,19.10
2019-05-05T20:19:20.207Z,18.93
2019-05-05T20:21:45.583Z,18.83
2019-05-05T20:24:11.055Z,16.97
2019-05-05T20:26:36.435Z,16.33
2019-05-05T20:29:11.588Z,16.27
2019-05-05T20:31:28.870Z,12.77
2019-05-05T20:34:31.314Z,11.30
2019-05-05T20:37:17.046Z,9.23
2019-05-05T20:39:43.938Z,5.47
2019-05-05T20:42:09.593Z,8.50
2019-05-05T20:44:35.471Z,7.03
2019-05-05T20:47:00.834Z,3.23
2019-05-05T20:49:26.205Z,3.83
2019-05-05T20:51:51.590Z,4.97
2019-05-05T20:54:16.938Z,5.17
2019-05-05T20:56:44.361Z,4.13
2019-05-05T20:59:09.330Z,5.00
2019-05-05T21:01:34.685Z,5.07
2019-05-05T21:04:00.060Z,3.87
2019-05-05T21:06:25.450Z,4.03
2019-05-05T21:08:50.814Z,3.23
2019-05-05T21:11:16.192Z,5.07
2019-05-05T21:13:41.638Z,5.07
2019-05-05T21:16:07.011Z,3.97
2019-05-05T21:18:34.535Z,3.00
2019-05-05T21:21:02.610Z,3.83
2019-05-05T21:23:34.231Z,3.50
2019-05-05T21:26:05.254Z,4.13
2019-05-05T21:28:30.618Z,4.07
2019-05-05T21:30:55.978Z,4.73
2019-05-05T21:33:23.735Z,5.13
2019-05-05T21:35:48.345Z,4.10
2019-05-05T21:38:15.306Z,4.17
2019-05-05T21:40:41.202Z,5.17
2019-05-05T21:43:06.574Z,3.50
2019-05-05T21:45:34.486Z,5.40
2019-05-05T21:47:59.343Z,3.43
2019-05-05T21:50:36.155Z,4.67
2019-05-05T21:53:07.135Z,6.90
2019-05-05T21:55:49.002Z,3.53
2019-05-05T21:58:31.432Z,3.93
2019-05-05T22:01:21.745Z,4.10
2019-05-05T22:03:47.395Z,3.37
2019-05-05T22:06:14.629Z,5.97
2019-05-05T22:08:39.791Z,5.30
2019-05-05T22:11:05.839Z,4.00
2019-05-05T22:13:31.190Z,5.23
2019-05-05T22:15:56.571Z,6.17
2019-05-05T22:18:21.959Z,5.67
2019-05-05T22:20:54.625Z,4.57
2019-05-05T22:23:20.137Z,5.30
2019-05-05T22:25:45.529Z,5.40
2019-05-05T22:28:10.879Z,7.40
2019-05-05T22:30:37.069Z,5.90
2019-05-05T22:33:05.780Z,5.27
2019-05-05T22:35:31.420Z,10.50
2019-05-05T22:37:56.795Z,6.47
2019-05-05T22:40:24.388Z,6.27
2019-05-05T22:42:51.262Z,12.33
2019-05-05T22:45:17.119Z,5.50
2019-05-05T22:47:42.525Z,6.87
2019-05-05T22:50:07.917Z,8.83
2019-05-05T22:52:34.399Z,6.90
2019-05-05T22:54:59.919Z,7.57
2019-05-05T22:57:25.321Z,8.80
2019-05-05T22:59:53.971Z,10.70
2019-05-05T23:02:19.458Z,9.53
2019-05-05T23:04:59.679Z,13.37
2019-05-05T23:07:30.687Z,10.90
2019-05-05T23:09:57.102Z,8.73
2019-05-05T23:12:24.226Z,6.23
2019-05-05T23:14:49.700Z,11.43
2019-05-05T23:17:26.206Z,8.13
2019-05-05T23:19:55.607Z,6.37
2019-05-05T23:22:30.510Z,8.03
2019-05-05T23:25:00.682Z,10.00
2019-05-05T23:27:44.046Z,5.43
2019-05-05T23:30:09.942Z,11.53
2019-05-05T23:32:35.293Z,8.60
2019-05-05T23:35:01.022Z,8.43
2019-05-05T23:37:26.899Z,5.83
2019-05-05T23:39:54.041Z,8.63
2019-05-05T23:42:19.245Z,7.83
2019-05-05T23:44:44.640Z,7.43
2019-05-05T23:47:11.058Z,8.60
2019-05-05T23:49:36.431Z,6.43
2019-05-05T23:52:04.495Z,7.70
2019-05-05T23:54:29.849Z,4.73
2019-05-05T23:56:55.194Z,6.93
2019-05-05T23:59:20.666Z,7.10
